createdAt,value
2018-10-02T00:03:08.747Z,1.30
2018-10-02T00:08:10.881Z,1.53
2018-10-02T00:13:18.645Z,1.93
2018-10-02T00:18:20.771Z,1.63
2018-10-02T00:23:22.894Z,1.63
2018-10-02T00:28:24.991Z,1.57
2018-10-02T00:33:27.162Z,2.00
2018-10-02T00:38:29.260Z,2.03
2018-10-02T00:43:31.417Z,1.40
2018-10-02T00:48:33.525Z,1.67
2018-10-02T00:53:35.651Z,1.50
2018-10-02T00:58:37.774Z,1.47
2018-10-02T01:03:39.887Z,1.03
2018-10-02T01:08:42.030Z,1.17
2018-10-02T01:13:44.129Z,1.50
2018-10-02T01:18:46.258Z,1.27
2018-10-02T01:23:48.367Z,1.70
2018-10-02T01:28:50.485Z,2.10
2018-10-02T01:33:52.631Z,1.40
2018-10-02T01:38:54.803Z,1.20
2018-10-02T01:43:56.922Z,1.53
2018-10-02T01:48:59.072Z,1.07
2018-10-02T01:54:01.181Z,1.40
2018-10-02T01:59:03.374Z,1.33
2018-10-02T02:04:05.479Z,1.03
2018-10-02T02:09:07.857Z,1.30
2018-10-02T02:14:09.970Z,1.47
2018-10-02T02:19:12.074Z,1.50
2018-10-02T02:24:14.260Z,2.10
2018-10-02T02:29:16.478Z,0.93
2018-10-02T02:34:18.608Z,1.10
2018-10-02T02:39:20.733Z,1.30
2018-10-02T02:44:22.859Z,1.10
2018-10-02T02:49:30.587Z,1.10
2018-10-02T02:54:32.730Z,2.00
2018-10-02T02:59:34.871Z,2.70
2018-10-02T03:04:36.983Z,2.03
2018-10-02T03:09:39.078Z,1.83
2018-10-02T03:14:41.199Z,1.40
2018-10-02T03:19:43.292Z,1.13
2018-10-02T03:24:45.377Z,1.90
2018-10-02T03:29:47.559Z,1.53
2018-10-02T03:34:49.663Z,2.30
2018-10-02T03:39:51.857Z,2.03
2018-10-02T03:44:53.992Z,1.63
2018-10-02T03:49:59.124Z,1.53
2018-10-02T03:55:01.257Z,1.50
2018-10-02T04:00:03.904Z,1.33
2018-10-02T04:05:06.047Z,1.30
2018-10-02T04:10:08.163Z,1.90
2018-10-02T04:15:10.300Z,1.77
2018-10-02T04:20:12.459Z,2.60
2018-10-02T04:25:14.569Z,2.03
2018-10-02T04:30:17.137Z,2.17
2018-10-02T04:35:19.267Z,2.10
2018-10-02T04:40:21.407Z,2.10
2018-10-02T04:45:23.521Z,1.70
2018-10-02T04:50:25.765Z,1.80
2018-10-02T04:55:27.860Z,2.53
2018-10-02T05:00:30.007Z,2.40
2018-10-02T05:05:32.093Z,1.50
2018-10-02T05:10:34.212Z,1.97
2018-10-02T05:15:36.321Z,2.47
2018-10-02T05:20:38.480Z,2.77
2018-10-02T05:25:40.601Z,2.10
2018-10-02T05:30:42.738Z,2.20
2018-10-02T05:35:44.901Z,2.10
2018-10-02T05:40:47.007Z,2.50
2018-10-02T05:45:49.195Z,1.83
2018-10-02T05:50:51.337Z,1.70
2018-10-02T05:55:53.671Z,2.40
2018-10-02T06:00:56.172Z,1.77
2018-10-02T06:05:58.285Z,1.80
2018-10-02T06:11:00.477Z,2.17
2018-10-02T06:16:02.590Z,1.73
2018-10-02T06:21:04.905Z,2.27
2018-10-02T06:26:07.046Z,2.17
2018-10-02T06:31:09.187Z,1.87
2018-10-02T06:36:11.479Z,1.93
2018-10-02T06:41:13.606Z,1.90
2018-10-02T06:46:15.739Z,1.70
2018-10-02T06:51:17.984Z,2.80
2018-10-02T06:56:20.087Z,1.77
2018-10-02T07:01:22.254Z,1.67
2018-10-02T07:06:24.418Z,1.57
2018-10-02T07:11:26.601Z,2.08
2018-10-02T07:16:28.780Z,1.70
2018-10-02T07:21:30.975Z,1.62
2018-10-02T07:26:33.197Z,1.57
2018-10-02T07:31:35.328Z,1.90
2018-10-02T07:36:37.591Z,2.00
2018-10-02T07:41:39.767Z,1.80
2018-10-02T07:46:41.876Z,1.60
2018-10-02T07:51:43.978Z,1.77
2018-10-02T07:56:46.176Z,1.80
2018-10-02T08:01:48.395Z,1.47
2018-10-02T08:06:50.589Z,1.93
2018-10-02T08:11:52.737Z,1.40
2018-10-02T08:16:54.872Z,1.50
2018-10-02T08:21:57.058Z,2.20
2018-10-02T08:26:59.223Z,1.10
2018-10-02T08:32:01.323Z,1.87
2018-10-02T08:37:03.489Z,1.80
2018-10-02T08:42:05.700Z,1.80
2018-10-02T08:47:07.900Z,1.67
2018-10-02T08:52:10.151Z,1.90
2018-10-02T08:57:13.076Z,1.87
2018-10-02T09:02:15.260Z,2.47
2018-10-02T09:07:17.439Z,2.40
2018-10-02T09:12:19.603Z,2.20
2018-10-02T09:17:21.759Z,2.40
2018-10-02T09:22:23.902Z,3.03
2018-10-02T09:27:26.062Z,2.70
2018-10-02T09:32:34.011Z,3.67
2018-10-02T09:37:41.955Z,3.23
2018-10-02T09:42:49.989Z,2.93
2018-10-02T09:47:52.156Z,3.43
2018-10-02T09:52:54.353Z,3.30
2018-10-02T09:57:56.584Z,3.20
2018-10-02T10:02:58.824Z,3.20
2018-10-02T10:08:00.988Z,2.90
2018-10-02T10:13:03.123Z,3.07
2018-10-02T10:18:05.303Z,3.23
2018-10-02T10:23:07.480Z,3.40
2018-10-02T10:28:09.654Z,4.60
2018-10-02T10:33:12.042Z,3.90
2018-10-02T10:38:14.197Z,4.35
2018-10-02T10:43:16.333Z,4.20
2018-10-02T10:48:18.535Z,3.60
2018-10-02T10:53:20.843Z,3.30
2018-10-02T10:58:23.039Z,4.97
2018-10-02T11:03:25.147Z,4.20
2018-10-02T11:08:27.287Z,4.77
2018-10-02T11:13:29.421Z,4.67
2018-10-02T11:18:31.570Z,4.30
2018-10-02T11:23:33.787Z,4.13
2018-10-02T11:28:35.954Z,4.50
2018-10-02T11:33:38.106Z,4.50
2018-10-02T11:38:40.255Z,4.27
2018-10-02T11:43:42.479Z,4.33
2018-10-02T11:48:44.647Z,4.27
2018-10-02T11:53:46.876Z,4.33
2018-10-02T11:58:49.027Z,3.37
2018-10-02T12:03:51.289Z,3.63
2018-10-02T12:08:53.505Z,2.90
2018-10-02T12:13:55.675Z,2.80
2018-10-02T12:18:57.932Z,2.93
2018-10-02T12:24:00.190Z,2.97
2018-10-02T12:29:02.499Z,2.57
2018-10-02T12:34:04.747Z,2.30
2018-10-02T12:39:07.636Z,3.17
2018-10-02T12:44:09.773Z,3.20
2018-10-02T12:49:12.149Z,2.87
2018-10-02T12:54:14.370Z,2.97
2018-10-02T12:59:16.528Z,3.43
2018-10-02T13:04:18.689Z,3.90
2018-10-02T13:09:20.840Z,3.57
2018-10-02T13:14:23.042Z,3.30
2018-10-02T13:19:25.161Z,2.90
2018-10-02T13:24:27.362Z,3.80
2018-10-02T13:29:29.508Z,3.90
2018-10-02T13:34:31.748Z,4.50
2018-10-02T13:39:33.820Z,4.00
2018-10-02T13:44:36.029Z,4.83
2018-10-02T13:49:38.145Z,4.90
2018-10-02T13:54:40.299Z,3.90
2018-10-02T13:59:42.450Z,4.60
2018-10-02T14:04:44.623Z,4.00
2018-10-02T14:09:46.743Z,4.43
2018-10-02T14:14:48.892Z,3.77
2018-10-02T14:19:51.080Z,2.40
2018-10-02T14:24:53.296Z,3.27
2018-10-02T14:29:55.442Z,4.10
2018-10-02T14:34:57.577Z,4.00
2018-10-02T14:39:59.760Z,3.73
2018-10-02T14:45:01.965Z,4.17
2018-10-02T14:50:04.204Z,3.70
2018-10-02T14:55:06.431Z,3.10
2018-10-02T15:00:08.652Z,4.23
2018-10-02T15:05:10.877Z,4.00
2018-10-02T15:10:13.018Z,4.30
2018-10-02T15:15:15.203Z,2.90
2018-10-02T15:20:17.420Z,3.20
2018-10-02T15:25:19.630Z,4.75
2018-10-02T15:30:21.803Z,3.40
2018-10-02T15:35:23.957Z,2.90
2018-10-02T15:40:26.168Z,3.80
2018-10-02T15:45:28.339Z,3.27
2018-10-02T15:50:30.531Z,3.80
2018-10-02T15:55:32.721Z,3.70
2018-10-02T16:00:34.872Z,3.33
2018-10-02T16:05:37.067Z,4.30
2018-10-02T16:10:39.910Z,3.97
2018-10-02T16:15:42.058Z,3.27
2018-10-02T16:20:44.244Z,3.20
2018-10-02T16:25:46.416Z,3.47
2018-10-02T16:30:48.617Z,2.60
2018-10-02T16:35:50.782Z,2.50
2018-10-02T16:40:55.555Z,2.97
2018-10-02T16:45:57.771Z,3.90
2018-10-02T16:50:59.985Z,2.57
2018-10-02T16:56:02.236Z,2.93
2018-10-02T17:01:04.461Z,2.43
2018-10-02T17:06:06.669Z,2.40
2018-10-02T17:11:08.865Z,2.33
2018-10-02T17:16:11.017Z,3.33
2018-10-02T17:21:13.188Z,2.63
2018-10-02T17:26:15.410Z,2.60
2018-10-02T17:31:17.589Z,3.80
2018-10-02T17:36:19.788Z,3.10
2018-10-02T17:41:21.962Z,2.30
2018-10-02T17:46:24.171Z,3.13
2018-10-02T17:51:26.337Z,2.33
2018-10-02T17:56:28.548Z,2.70
2018-10-02T18:01:30.857Z,2.40
2018-10-02T18:06:33.062Z,2.80
2018-10-02T18:11:35.472Z,3.80
2018-10-02T18:16:37.675Z,3.70
2018-10-02T18:21:39.937Z,3.20
2018-10-02T18:26:42.124Z,3.13
2018-10-02T18:31:44.370Z,4.93
2018-10-02T18:36:46.637Z,3.90
2018-10-02T18:41:49.021Z,3.30
2018-10-02T18:46:51.364Z,3.85
2018-10-02T18:51:53.677Z,3.40
2018-10-02T18:56:55.967Z,2.53
2018-10-02T19:01:58.326Z,2.33
2018-10-02T19:07:00.831Z,2.70
2018-10-02T19:12:09.256Z,2.70
2018-10-02T19:17:12.220Z,2.40
2018-10-02T19:22:14.822Z,2.17
2018-10-02T19:27:17.279Z,2.03
2018-10-02T19:32:20.105Z,2.20
2018-10-02T19:37:28.499Z,1.93
2018-10-02T19:42:31.115Z,3.10
2018-10-02T19:47:33.897Z,3.20
2018-10-02T19:52:37.159Z,2.70
2018-10-02T19:57:39.741Z,3.30
2018-10-02T20:02:42.294Z,3.17
2018-10-02T20:07:45.265Z,2.63
2018-10-02T20:12:47.900Z,2.70
2018-10-02T20:17:50.269Z,3.37
2018-10-02T20:22:52.664Z,3.57
2018-10-02T20:27:55.054Z,2.80
2018-10-02T20:32:57.477Z,3.47
2018-10-02T20:37:59.883Z,3.57
2018-10-02T20:43:02.331Z,2.47
2018-10-02T20:48:04.703Z,2.00
2018-10-02T20:53:07.123Z,2.37
2018-10-02T20:58:09.522Z,2.50
2018-10-02T21:03:11.787Z,2.50
2018-10-02T21:08:14.037Z,2.03
2018-10-02T21:13:16.216Z,3.07
2018-10-02T21:18:18.559Z,2.20
2018-10-02T21:23:20.717Z,2.67
2018-10-02T21:28:23.050Z,2.63
2018-10-02T21:33:25.238Z,2.40
2018-10-02T21:38:27.388Z,3.73
2018-10-02T21:43:29.525Z,2.80
2018-10-02T21:48:31.700Z,2.20
2018-10-02T21:53:33.942Z,3.30
2018-10-02T21:58:36.136Z,2.80
2018-10-02T22:03:39.491Z,3.50
2018-10-02T22:08:41.727Z,3.80
2018-10-02T22:13:43.882Z,3.23
2018-10-02T22:18:46.181Z,4.37
2018-10-02T22:23:48.422Z,4.30
2018-10-02T22:28:50.603Z,3.03
2018-10-02T22:33:52.719Z,4.30
2018-10-02T22:38:54.913Z,4.07
2018-10-02T22:43:57.046Z,3.50
2018-10-02T22:48:59.269Z,3.63
2018-10-02T22:54:01.419Z,3.37
2018-10-02T22:59:03.602Z,3.50
2018-10-02T23:04:06.248Z,3.60
2018-10-02T23:09:09.977Z,2.70
2018-10-02T23:14:12.045Z,3.67
2018-10-02T23:19:14.170Z,3.43
2018-10-02T23:24:16.344Z,3.60
2018-10-02T23:29:18.474Z,2.90
2018-10-02T23:34:20.599Z,4.27
2018-10-02T23:39:22.722Z,4.13
2018-10-02T23:44:24.871Z,2.70
2018-10-02T23:49:26.985Z,3.33
2018-10-02T23:54:29.088Z,3.60
2018-10-02T23:59:31.221Z,3.93
